Time;durP1;ratioP1;P1;durP2;ratioP2;P2;SDS_P1;SDS_P2;PMS_P1;PMS_P2;Temp;Humidity;BMP_temperature;BMP_pressure;BME280_temperature;BME280_humidity;BME280_pressure;Samples;Min_cycle;Max_cycle;Signal;HPM_P1;HPM_P2
2021/05/11 00:02:15;;;;;;;0.47;0.47;;;;;;;12.30;86.63;94738.41;5015663;28;20220;-67
2021/05/11 00:04:42;;;;;;;0.10;0.10;;;;;;;12.27;87.18;94744.13;5013050;28;20727;-67
2021/05/11 00:07:09;;;;;;;1.03;0.20;;;;;;;12.20;87.28;94739.69;5015066;28;20231;-66
2021/05/11 00:09:36;;;;;;;0.10;0.10;;;;;;;12.16;87.10;94727.13;5017554;28;20220;-67
2021/05/11 00:12:03;;;;;;;0.40;0.40;;;;;;;12.05;87.17;94730.47;5011480;28;20429;-66
2021/05/11 00:14:30;;;;;;;0.10;0.10;;;;;;;11.99;86.98;94737.44;5018515;28;20502;-65
2021/05/11 00:16:57;;;;;;;0.20;0.10;;;;;;;12.04;87.17;94740.22;5019506;28;20227;-66
2021/05/11 00:19:26;;;;;;;0.33;0.10;;;;;;;12.07;87.17;94733.69;5017266;28;20224;-66
2021/05/11 00:21:53;;;;;;;0.03;0.00;;;;;;;12.09;87.30;94739.59;5017735;28;20306;-66
2021/05/11 00:24:20;;;;;;;0.10;0.10;;;;;;;11.99;87.21;94726.88;5016989;28;20266;-66
2021/05/11 00:26:47;;;;;;;0.00;0.00;;;;;;;11.93;86.86;94727.72;5017691;28;20220;-66
2021/05/11 00:29:15;;;;;;;0.20;0.10;;;;;;;11.96;86.96;94727.28;5011528;28;20725;-66
2021/05/11 00:31:41;;;;;;;0.50;0.10;;;;;;;11.93;86.99;94728.53;5017429;28;20231;-66
2021/05/11 00:34:08;;;;;;;0.43;0.30;;;;;;;11.93;87.65;94728.53;5011230;28;20657;-66
2021/05/11 00:36:36;;;;;;;1.70;0.20;;;;;;;11.96;87.47;94735.22;5015915;28;20447;-66
2021/05/11 00:39:04;;;;;;;0.23;0.23;;;;;;;11.78;87.91;94724.53;5016122;28;20331;-66
2021/05/11 00:41:31;;;;;;;0.33;0.10;;;;;;;11.62;88.58;94717.94;5020119;28;20216;-66
2021/05/11 00:43:59;;;;;;;0.13;0.13;;;;;;;11.59;88.21;94721.00;5012008;28;20221;-66
2021/05/11 00:46:28;;;;;;;0.30;0.30;;;;;;;11.52;88.57;94723.69;5021196;28;20228;-66
2021/05/11 00:48:57;;;;;;;0.10;0.10;;;;;;;11.33;88.77;94717.47;5018777;28;20277;-67
2021/05/11 00:51:24;;;;;;;0.10;0.10;;;;;;;11.34;88.93;94723.59;5036604;28;20232;-65
2021/05/11 00:53:52;;;;;;;0.10;0.10;;;;;;;11.33;88.55;94724.59;5020150;28;20297;-67
2021/05/11 00:56:20;;;;;;;0.33;0.33;;;;;;;11.22;89.29;94719.97;5019553;28;20220;-65
2021/05/11 00:58:47;;;;;;;0.20;0.20;;;;;;;11.19;89.23;94730.97;5020098;28;20251;-67
2021/05/11 01:01:14;;;;;;;0.90;0.10;;;;;;;11.18;89.38;94732.00;5011697;28;20284;-65
2021/05/11 01:03:41;;;;;;;0.83;0.10;;;;;;;11.15;89.91;94713.91;5019394;28;20247;-66
2021/05/11 01:06:08;;;;;;;0.43;0.10;;;;;;;10.96;90.32;94699.78;5019045;28;20243;-66
2021/05/11 01:08:35;;;;;;;0.20;0.20;;;;;;;11.08;90.50;94701.56;5020568;28;20234;-66
2021/05/11 01:11:03;;;;;;;0.10;0.10;;;;;;;11.17;90.07;94696.06;5010870;28;20306;-66
2021/05/11 01:13:29;;;;;;;0.20;0.10;;;;;;;11.11;90.16;94681.84;5031636;28;20243;-67
2021/05/11 01:15:56;;;;;;;0.43;0.43;;;;;;;11.05;90.39;94695.88;5008092;28;20725;-67
2021/05/11 01:18:29;;;;;;;1.30;0.30;;;;;;;11.03;90.74;94696.09;5020436;28;20243;-67
2021/05/11 01:21:01;;;;;;;0.23;0.23;;;;;;;11.01;91.64;94692.88;5020771;28;20666;-67
2021/05/11 01:23:56;;;;;;;0.40;0.40;;;;;;;11.02;92.00;94686.56;5017645;28;20232;-66
2021/05/11 01:26:26;;;;;;;0.10;0.10;;;;;;;11.12;91.65;94683.47;5020103;28;20231;-66
2021/05/11 01:29:01;;;;;;;0.10;0.10;;;;;;;11.17;91.66;94685.50;5019227;28;20814;-66
2021/05/11 01:31:52;;;;;;;0.20;0.10;;;;;;;11.07;91.29;94670.91;5014433;28;20546;-66
2021/05/11 01:45:49;;;;;;;0.20;0.20;;;;;;;10.70;92.83;94669.06;5023909;28;20303;-66
2021/05/11 01:48:26;;;;;;;0.30;0.30;;;;;;;10.55;92.88;94661.38;5008112;28;20235;-66
2021/05/11 01:51:07;;;;;;;0.50;0.20;;;;;;;10.30;93.83;94658.59;5019725;28;20265;-66
2021/05/11 01:53:48;;;;;;;2.37;0.37;;;;;;;10.22;94.88;94656.19;5019158;28;20284;-65
2021/05/11 01:56:47;;;;;;;0.30;0.30;;;;;;;10.26;94.79;94641.59;5021719;28;20304;-66
2021/05/11 02:22:37;;;;;;;0.20;0.20;;;;;;;10.95;91.38;94651.47;5010076;28;20640;-66
2021/05/11 02:24:10;;;;;;;0.57;0.57;;;;;;;10.81;92.09;94645.44;5007247;28;20761;-66
2021/05/11 02:26:37;;;;;;;0.40;0.40;;;;;;;10.64;92.39;94654.03;5020989;28;20277;-66
2021/05/11 02:29:05;;;;;;;0.73;0.10;;;;;;;10.59;93.03;94664.41;5019892;28;20619;-66
2021/05/11 02:31:32;;;;;;;0.43;0.20;;;;;;;10.81;92.38;94639.38;5017004;28;20267;-65
2021/05/11 02:33:59;;;;;;;0.23;0.23;;;;;;;10.80;92.31;94632.47;5019353;28;20235;-66
2021/05/11 02:36:25;;;;;;;1.57;1.47;;;;;;;10.80;92.44;94632.47;5017183;28;20781;-65
2021/05/11 02:38:52;;;;;;;1.70;0.10;;;;;;;10.81;92.02;94623.53;5018268;28;20302;-67
2021/05/11 02:41:19;;;;;;;0.77;0.10;;;;;;;10.79;93.13;94612.38;5019860;28;20222;-67
2021/05/11 02:43:46;;;;;;;0.20;0.17;;;;;;;10.78;92.98;94618.66;5022350;28;20577;-66
2021/05/11 02:46:13;;;;;;;0.53;0.53;;;;;;;10.74;92.90;94610.34;5021090;28;20802;-66
2021/05/11 02:48:40;;;;;;;0.20;0.20;;;;;;;10.66;93.01;94609.78;5025141;28;20773;-66
2021/05/11 02:51:07;;;;;;;2.97;0.50;;;;;;;10.68;93.31;94602.47;5018302;28;20494;-67
2021/05/11 02:53:34;;;;;;;0.53;0.23;;;;;;;10.66;93.51;94609.78;5015876;28;20615;-66
2021/05/11 02:56:01;;;;;;;0.10;0.10;;;;;;;10.61;93.45;94625.44;5018673;28;20765;-65
2021/05/11 02:58:29;;;;;;;0.30;0.30;;;;;;;10.43;93.67;94631.41;5016962;28;20582;-65
2021/05/11 03:00:56;;;;;;;0.30;0.30;;;;;;;10.38;93.78;94621.44;5017934;28;20224;-66
2021/05/11 03:03:24;;;;;;;0.40;0.30;;;;;;;10.29;93.72;94614.78;5013422;28;20617;-66
2021/05/11 03:05:51;;;;;;;5.10;0.93;;;;;;;10.24;93.90;94604.88;5015671;28;20329;-66
2021/05/11 03:08:18;;;;;;;0.40;0.40;;;;;;;10.21;93.93;94617.63;5019515;28;20619;-66
2021/05/11 03:10:44;;;;;;;0.60;0.10;;;;;;;10.21;93.97;94633.44;5039044;28;20307;-66
2021/05/11 03:13:11;;;;;;;0.20;0.10;;;;;;;10.20;94.54;94647.63;5019439;28;20481;-66
2021/05/11 03:15:38;;;;;;;1.70;0.23;;;;;;;10.16;94.92;94657.78;5021791;28;20312;-66
2021/05/11 03:18:05;;;;;;;0.30;0.30;;;;;;;9.95;95.33;94658.81;5015951;28;20256;-66
2021/05/11 03:20:33;;;;;;;0.50;0.33;;;;;;;9.94;95.55;94659.84;5019543;28;20237;-65
2021/05/11 03:23:02;;;;;;;0.33;0.33;;;;;;;9.85;95.15;94658.41;5024677;28;20775;-66
2021/05/11 03:25:28;;;;;;;0.10;0.10;;;;;;;9.67;95.24;94658.22;5020949;28;20227;-63
2021/05/11 03:27:57;;;;;;;2.27;0.30;;;;;;;9.56;96.44;94653.56;5018720;28;20915;-64
2021/05/11 03:30:24;;;;;;;0.10;0.10;;;;;;;9.61;96.36;94657.22;5014013;28;20495;-64
2021/05/11 03:32:55;;;;;;;0.67;0.43;;;;;;;9.60;96.51;94657.41;5013062;28;20850;-64
2021/05/11 03:35:22;;;;;;;0.90;0.17;;;;;;;9.60;96.27;94667.94;5006730;28;20818;-64
2021/05/11 03:37:50;;;;;;;0.20;0.20;;;;;;;9.58;96.56;94665.50;5013685;28;20311;-63
2021/05/11 03:40:16;;;;;;;0.20;0.20;;;;;;;9.56;96.38;94666.72;5016472;28;20299;-65
2021/05/11 03:42:51;;;;;;;0.30;0.10;;;;;;;9.62;96.50;94658.03;5013329;28;20254;-64
2021/05/11 03:45:19;;;;;;;0.23;0.23;;;;;;;9.67;96.44;94652.94;5015580;28;20308;-64
2021/05/11 03:47:48;;;;;;;1.80;1.03;;;;;;;9.78;97.19;94654.16;5012373;28;20704;-64
2021/05/11 03:50:16;;;;;;;0.10;0.10;;;;;;;9.82;97.05;94656.19;5013872;28;20698;-64
2021/05/11 03:52:44;;;;;;;0.20;0.20;;;;;;;9.82;96.88;94650.94;5012736;28;20226;-64
2021/05/11 03:55:13;;;;;;;0.10;0.10;;;;;;;9.87;97.00;94632.66;5012997;28;20242;-63
2021/05/11 03:57:40;;;;;;;0.40;0.40;;;;;;;9.90;97.25;94621.75;5019702;28;20463;-64
2021/05/11 04:00:09;;;;;;;0.30;0.20;;;;;;;9.95;96.69;94618.47;5006380;28;20261;-64
2021/05/11 04:02:37;;;;;;;0.20;0.10;;;;;;;10.02;97.04;94623.75;5016764;28;20269;-65
2021/05/11 04:05:07;;;;;;;0.17;0.10;;;;;;;10.05;96.84;94639.13;5022250;28;20308;-64
2021/05/11 04:07:35;;;;;;;0.43;0.40;;;;;;;9.96;96.49;94641.97;5011770;28;20226;-64
2021/05/11 04:10:08;;;;;;;0.70;0.30;;;;;;;9.98;96.43;94642.63;5004324;28;20306;-64
2021/05/11 04:12:49;;;;;;;0.30;0.30;;;;;;;9.89;95.53;94641.22;5014149;28;20253;-64
2021/05/11 04:18:03;;;;;;;0.20;0.10;;;;;;;9.83;96.29;94639.38;5016706;28;20219;-64
2021/05/11 04:20:30;;;;;;;0.20;0.20;;;;;;;9.73;96.41;94622.38;5014438;28;20225;-63
2021/05/11 04:22:58;;;;;;;0.13;0.13;;;;;;;9.75;96.33;94628.22;5022709;28;20225;-64
2021/05/11 04:25:25;;;;;;;0.20;0.20;;;;;;;9.71;96.20;94622.56;5011665;28;20293;-64
2021/05/11 04:27:53;;;;;;;0.13;0.10;;;;;;;9.75;95.87;94610.59;5017264;28;20722;-65
2021/05/11 04:30:21;;;;;;;0.10;0.10;;;;;;;9.74;95.83;94608.97;5018474;28;20227;-64
2021/05/11 04:32:48;;;;;;;0.27;0.17;;;;;;;9.76;95.58;94614.84;5015861;28;20291;-64
2021/05/11 04:35:16;;;;;;;0.27;0.10;;;;;;;9.73;95.83;94599.47;5018170;28;20230;-64
2021/05/11 04:37:44;;;;;;;0.30;0.17;;;;;;;9.75;95.96;94592.16;5011678;28;20213;-64
2021/05/11 04:40:12;;;;;;;0.83;0.30;;;;;;;9.80;95.96;94589.72;5012870;28;20253;-63
2021/05/11 04:42:43;;;;;;;0.73;0.30;;;;;;;9.93;95.80;94608.16;5014571;28;20246;-64
2021/05/11 04:45:15;;;;;;;1.03;0.20;;;;;;;9.85;95.86;94611.00;5016029;28;20720;-65
2021/05/11 04:47:50;;;;;;;0.30;0.20;;;;;;;9.89;95.61;94599.03;5015122;28;20300;-65
2021/05/11 04:50:19;;;;;;;0.63;0.60;;;;;;;9.95;95.91;94600.03;5018394;28;20558;-64
2021/05/11 04:52:47;;;;;;;0.30;0.10;;;;;;;10.06;95.41;94609.13;5023460;28;20646;-64
2021/05/11 04:55:15;;;;;;;0.23;0.20;;;;;;;10.11;95.49;94610.13;5023111;28;20380;-64
2021/05/11 04:57:43;;;;;;;0.50;0.50;;;;;;;10.18;95.90;94620.69;5024551;28;20303;-65
2021/05/11 05:00:13;;;;;;;0.73;0.50;;;;;;;10.36;95.37;94626.13;5019142;28;20239;-64
2021/05/11 05:02:48;;;;;;;0.17;0.17;;;;;;;10.54;95.14;94628.91;5018393;28;20659;-64
2021/05/11 05:05:16;;;;;;;0.20;0.17;;;;;;;10.74;94.52;94636.75;5021538;28;20347;-63
2021/05/11 05:07:44;;;;;;;0.67;0.10;;;;;;;10.96;93.54;94650.44;5023252;28;20241;-63
2021/05/11 05:10:12;;;;;;;6.33;0.93;;;;;;;11.10;93.52;94659.91;5022809;28;20230;-65
2021/05/11 05:12:44;;;;;;;0.30;0.30;;;;;;;11.31;93.07;94656.13;5021988;28;20226;-63
2021/05/11 05:15:14;;;;;;;1.67;0.20;;;;;;;11.54;92.22;94641.56;5020415;28;20221;-64
2021/05/11 05:17:41;;;;;;;0.30;0.20;;;;;;;11.73;90.80;94637.16;5020818;28;20223;-65
2021/05/11 05:20:10;;;;;;;0.20;0.20;;;;;;;11.89;90.12;94641.94;5017032;28;20246;-64
2021/05/11 05:22:37;;;;;;;0.50;0.50;;;;;;;12.04;89.93;94639.75;5021414;28;20224;-65
2021/05/11 05:25:11;;;;;;;0.30;0.20;;;;;;;12.19;90.41;94640.22;5019348;28;20988;-64
2021/05/11 05:27:43;;;;;;;0.70;0.30;;;;;;;12.34;90.32;94631.09;5024971;28;20510;-65
2021/05/11 05:30:12;;;;;;;0.47;0.37;;;;;;;12.50;89.81;94638.47;5023500;28;20334;-64
2021/05/11 05:32:40;;;;;;;0.30;0.20;;;;;;;12.62;88.42;94644.66;5020179;28;20230;-65
2021/05/11 05:35:08;;;;;;;0.20;0.20;;;;;;;12.64;88.01;94636.50;5017210;28;20230;-65
2021/05/11 05:37:40;;;;;;;0.90;0.53;;;;;;;12.79;86.83;94639.56;5014635;28;20637;-65
2021/05/11 05:40:09;;;;;;;0.30;0.30;;;;;;;12.91;87.14;94645.75;5022342;28;20216;-65
2021/05/11 05:42:36;;;;;;;0.97;0.53;;;;;;;13.00;86.26;94640.94;5022888;28;20268;-65
2021/05/11 05:45:05;;;;;;;0.20;0.20;;;;;;;13.15;86.05;94636.03;5021955;28;20307;-63
2021/05/11 05:47:32;;;;;;;0.10;0.10;;;;;;;13.23;84.97;94640.25;5022725;28;20286;-64
2021/05/11 05:50:04;;;;;;;0.60;0.40;;;;;;;13.29;85.15;94636.72;5020752;28;20269;-65
2021/05/11 05:52:37;;;;;;;0.80;0.43;;;;;;;13.37;84.23;94629.25;5022275;28;20731;-65
2021/05/11 05:55:06;;;;;;;0.60;0.30;;;;;;;13.38;83.85;94632.72;5021320;28;20704;-65
2021/05/11 05:57:33;;;;;;;1.03;0.20;;;;;;;13.48;84.27;94632.16;5022537;28;20604;-65
2021/05/11 06:00:00;;;;;;;0.50;0.50;;;;;;;13.60;83.31;94630.34;5022989;28;20459;-65
2021/05/11 06:02:28;;;;;;;0.40;0.30;;;;;;;13.65;83.97;94623.31;5022094;28;20224;-64
2021/05/11 06:04:55;;;;;;;0.50;0.40;;;;;;;13.79;83.29;94615.16;5018958;28;20303;-64
2021/05/11 06:07:24;;;;;;;0.93;0.40;;;;;;;13.99;83.11;94594.44;5019674;28;20220;-65
2021/05/11 06:09:53;;;;;;;0.37;0.37;;;;;;;14.12;81.47;94593.38;5020637;28;20323;-65
2021/05/11 06:12:26;;;;;;;0.30;0.30;;;;;;;14.24;80.60;94607.44;5015940;28;20314;-65
2021/05/11 06:17:01;;;;;;;0.30;0.30;;;;;;;14.39;80.59;94615.72;5017027;28;20250;-64
2021/05/11 06:17:47;;;;;;;0.20;0.20;;;;;;;14.52;78.73;94604.88;5018263;28;20373;-64
2021/05/11 06:20:15;;;;;;;0.60;0.17;;;;;;;14.60;78.61;94589.63;5019456;28;20715;-64
2021/05/11 06:22:43;;;;;;;3.97;0.53;;;;;;;14.79;78.58;94589.22;5023774;28;20281;-64
2021/05/11 06:25:11;;;;;;;0.53;0.30;;;;;;;15.02;77.62;94592.84;5007031;28;20302;-65
2021/05/11 06:27:39;;;;;;;0.30;0.20;;;;;;;15.20;77.60;94587.34;5000556;28;20682;-64
2021/05/11 06:30:07;;;;;;;0.50;0.30;;;;;;;15.41;76.40;94585.84;5002856;28;20255;-65
2021/05/11 06:32:34;;;;;;;1.37;0.37;;;;;;;15.61;75.42;94574.75;5002394;28;20247;-64
2021/05/11 06:35:04;;;;;;;0.10;0.10;;;;;;;15.43;76.71;94575.78;5001227;28;20682;-65
2021/05/11 06:37:31;;;;;;;0.20;0.20;;;;;;;15.48;75.44;94575.06;4997996;28;20587;-64
2021/05/11 06:40:00;;;;;;;0.30;0.30;;;;;;;15.66;75.07;94555.44;5001120;28;20737;-64
2021/05/11 06:42:29;;;;;;;0.30;0.30;;;;;;;15.68;75.06;94532.88;4995738;28;20767;-65
2021/05/11 06:45:05;;;;;;;0.37;0.20;;;;;;;15.80;76.08;94535.44;4996539;28;20533;-64
2021/05/11 06:50:34;;;;;;;0.10;0.10;;;;;;;16.04;74.95;94531.53;4996851;28;20225;-64
2021/05/11 06:53:06;;;;;;;0.20;0.20;;;;;;;16.17;74.73;94538.34;5019741;28;20600;-65
2021/05/11 06:55:37;;;;;;;0.20;0.20;;;;;;;16.30;73.75;94550.50;5019085;28;20215;-65
2021/05/11 06:58:04;;;;;;;0.23;0.20;;;;;;;16.49;72.96;94555.28;5020008;28;20700;-65
2021/05/11 07:00:32;;;;;;;0.40;0.30;;;;;;;16.68;72.52;94560.31;5015935;28;20334;-64
2021/05/11 07:03:00;;;;;;;0.20;0.20;;;;;;;16.82;71.53;94553.56;5016523;28;20653;-65
2021/05/11 07:05:30;;;;;;;0.40;0.40;;;;;;;16.84;70.44;94550.66;5019366;28;20293;-65
2021/05/11 07:08:07;;;;;;;1.10;1.00;;;;;;;16.97;71.87;94544.94;5019193;28;20789;-64
2021/05/11 07:10:37;;;;;;;0.27;0.27;;;;;;;17.13;71.69;94529.91;5015526;28;20733;-65
2021/05/11 07:13:08;;;;;;;1.13;0.83;;;;;;;17.17;68.81;94531.00;5018827;28;20239;-65
2021/05/11 07:15:37;;;;;;;0.17;0.17;;;;;;;17.21;69.06;94540.94;5030095;28;20277;-65
2021/05/11 07:18:06;;;;;;;0.40;0.20;;;;;;;17.10;69.00;94549.06;5019198;28;20309;-64
2021/05/11 07:20:33;;;;;;;0.30;0.30;;;;;;;17.17;70.90;94542.47;5013422;28;20286;-63
2021/05/11 07:23:01;;;;;;;0.37;0.37;;;;;;;17.29;71.13;94534.34;5015841;28;21030;-65
2021/05/11 07:25:32;;;;;;;0.10;0.10;;;;;;;17.44;71.27;94530.97;5020285;28;20246;-64
2021/05/11 07:30:54;;;;;;;1.00;0.50;;;;;;;17.58;70.37;94513.50;5018964;28;20242;-65
2021/05/11 07:33:22;;;;;;;0.37;0.20;;;;;;;17.78;69.61;94507.53;5019188;28;20228;-65
2021/05/11 07:35:50;;;;;;;1.43;0.57;;;;;;;17.84;68.79;94491.31;5013322;28;20243;-65
2021/05/11 07:38:17;;;;;;;1.23;0.60;;;;;;;17.78;68.88;94492.31;5018043;28;20328;-63
2021/05/11 07:40:44;;;;;;;0.50;0.50;;;;;;;17.72;70.56;94493.34;5020750;28;20389;-65
2021/05/11 07:43:12;;;;;;;0.10;0.10;;;;;;;17.85;70.13;94486.78;5015265;28;20262;-64
2021/05/11 07:45:56;;;;;;;0.87;0.20;;;;;;;17.94;68.41;94505.78;5018106;28;20297;-65
2021/05/11 07:51:47;;;;;;;2.60;0.90;;;;;;;17.62;69.07;94519.91;5007924;28;20286;-65
2021/05/11 08:03:15;;;;;;;0.40;0.30;;;;;;;17.44;69.79;94544.31;5021873;28;20523;-63
2021/05/11 08:05:59;;;;;;;0.30;0.30;;;;;;;17.40;69.55;94527.22;5020569;28;20223;-64
2021/05/11 08:16:44;;;;;;;1.13;0.67;;;;;;;17.42;71.55;94519.75;5014694;28;20320;-65
2021/05/11 08:19:18;;;;;;;0.20;0.20;;;;;;;17.48;71.19;94524.09;5020293;28;20297;-65
2021/05/11 08:22:16;;;;;;;0.73;0.47;;;;;;;17.68;70.61;94524.25;5018501;28;20686;-65
2021/05/11 08:27:34;;;;;;;2.20;0.30;;;;;;;17.97;69.96;94527.41;5018308;28;20631;-65
2021/05/11 08:30:03;;;;;;;0.60;0.60;;;;;;;18.30;70.03;94515.59;5022275;28;20277;-64
2021/05/11 08:32:34;;;;;;;0.87;0.50;;;;;;;18.51;69.37;94521.81;5023278;28;20239;-65
2021/05/11 08:35:01;;;;;;;0.40;0.40;;;;;;;18.82;68.24;94517.41;5021797;28;20238;-65
2021/05/11 08:37:29;;;;;;;0.53;0.53;;;;;;;18.76;65.72;94513.13;5022973;28;20401;-65
2021/05/11 08:39:56;;;;;;;0.63;0.63;;;;;;;19.07;67.20;94518.56;5026107;28;20289;-65
2021/05/11 08:42:23;;;;;;;0.67;0.67;;;;;;;19.23;65.61;94504.16;5019785;28;20417;-65
2021/05/11 08:44:51;;;;;;;1.10;0.97;;;;;;;19.48;65.97;94506.84;5016447;28;20252;-64
2021/05/11 08:47:20;;;;;;;2.83;1.20;;;;;;;19.60;65.42;94512.75;5017825;28;20792;-65
2021/05/11 08:49:49;;;;;;;0.50;0.50;;;;;;;20.20;65.19;94493.38;5016986;28;20294;-65
2021/05/11 08:52:25;;;;;;;2.80;1.07;;;;;;;20.58;62.25;94492.75;5022003;28;20228;-63
2021/05/11 08:55:08;;;;;;;0.43;0.40;;;;;;;21.01;61.48;94499.22;5023586;28;20231;-66
2021/05/11 09:06:35;;;;;;;0.40;0.30;;;;;;;21.94;59.18;94521.66;5015648;28;20244;-65
2021/05/11 09:09:21;;;;;;;0.20;0.20;;;;;;;22.09;59.62;94523.44;5018046;28;20704;-65
2021/05/11 09:15:20;;;;;;;0.87;0.50;;;;;;;22.43;58.53;94529.53;5011463;28;20653;-65
2021/05/11 09:26:09;;;;;;;0.67;0.67;;;;;;;21.88;57.40;94479.03;5018672;28;20219;-65
2021/05/11 09:28:42;;;;;;;0.67;0.50;;;;;;;21.85;56.79;94470.47;5017642;28;20269;-65
2021/05/11 09:31:30;;;;;;;3.60;0.50;;;;;;;22.07;59.14;94467.31;5021619;28;20325;-66
2021/05/11 09:34:16;;;;;;;0.30;0.30;;;;;;;22.47;57.44;94464.44;5017990;28;20246;-64
2021/05/11 09:45:51;;;;;;;0.43;0.43;;;;;;;21.69;58.63;94462.81;5017933;28;20778;-65
2021/05/11 09:54:26;;;;;;;0.90;0.90;;;;;;;21.53;58.20;94462.13;5005768;28;20673;-65
2021/05/11 09:57:03;;;;;;;1.23;0.90;;;;;;;21.33;60.26;94465.00;5018118;28;21014;-65
2021/05/11 09:59:57;;;;;;;0.80;0.80;;;;;;;21.25;59.22;94469.84;5021626;28;20289;-63
2021/05/11 10:46:43;;;;;;;0.60;0.60;;;;;;;20.15;63.54;94478.13;4997235;28;20281;-63
2021/05/11 10:49:28;;;;;;;1.07;1.07;;;;;;;20.31;63.53;94465.50;5021360;28;20231;-66
2021/05/11 10:52:09;;;;;;;2.20;2.10;;;;;;;20.61;63.96;94473.44;5015864;28;20632;-65
2021/05/11 10:54:38;;;;;;;3.93;2.50;;;;;;;20.57;63.16;94472.38;5021438;28;20853;-65
2021/05/11 10:57:27;;;;;;;1.23;1.10;;;;;;;20.60;62.59;94482.56;5013082;28;20728;-64
2021/05/11 11:00:10;;;;;;;1.77;1.10;;;;;;;20.73;62.44;94476.59;5019920;28;20323;-63
2021/05/11 11:02:42;;;;;;;0.60;0.60;;;;;;;20.89;61.95;94473.84;5015845;28;20274;-65
2021/05/11 11:05:11;;;;;;;0.80;0.80;;;;;;;21.03;61.81;94469.47;5013904;28;20281;-65
2021/05/11 11:07:42;;;;;;;3.07;1.63;;;;;;;21.12;62.31;94462.44;5017845;28;20247;-65
2021/05/11 11:10:10;;;;;;;1.47;1.37;;;;;;;20.84;62.67;94473.84;5016844;28;20238;-64
2021/05/11 11:12:42;;;;;;;0.90;0.90;;;;;;;20.54;63.27;94478.28;5021484;28;20214;-64
2021/05/11 11:15:16;;;;;;;1.63;1.53;;;;;;;20.29;63.82;94478.34;5021051;28;20251;-64
2021/05/11 11:17:47;;;;;;;2.33;2.23;;;;;;;20.12;63.89;94474.13;5018938;28;20669;-65
2021/05/11 11:20:17;;;;;;;1.00;1.00;;;;;;;19.88;64.20;94475.78;5014129;28;20223;-65
2021/05/11 11:25:58;;;;;;;1.80;1.70;;;;;;;19.15;64.99;94441.28;5021181;28;20216;-65
2021/05/11 11:28:30;;;;;;;1.53;1.30;;;;;;;18.97;66.58;94461.31;5019428;28;20672;-64
2021/05/11 11:30:57;;;;;;;3.17;1.50;;;;;;;18.96;67.38;94464.25;5019848;28;20239;-64
2021/05/11 11:33:25;;;;;;;1.13;1.13;;;;;;;18.98;67.53;94478.97;5021942;28;20281;-65
2021/05/11 11:35:53;;;;;;;1.90;1.80;;;;;;;18.85;67.97;94486.69;5013849;28;20247;-65
2021/05/11 11:38:26;;;;;;;4.33;1.17;;;;;;;18.90;68.32;94498.19;5022426;28;20266;-64
2021/05/11 11:41:02;;;;;;;3.73;2.23;;;;;;;18.48;70.06;94495.63;5014725;28;20868;-65
2021/05/11 11:43:31;;;;;;;2.03;1.83;;;;;;;18.12;71.51;94508.03;5018702;28;20235;-65
2021/05/11 11:45:58;;;;;;;2.43;1.77;;;;;;;18.03;71.36;94522.91;5022237;28;20471;-65
2021/05/11 11:48:26;;;;;;;2.20;1.77;;;;;;;17.77;71.44;94528.09;5018078;28;20292;-65
2021/05/11 11:50:55;;;;;;;2.67;2.43;;;;;;;17.64;72.55;94533.81;5016408;28;20323;-65
2021/05/11 11:53:28;;;;;;;2.13;2.03;;;;;;;17.43;72.62;94526.72;5013144;28;20293;-63
2021/05/11 11:58:43;;;;;;;2.83;2.73;;;;;;;17.62;72.33;94531.41;4977822;28;20279;-65
2021/05/11 12:01:15;;;;;;;4.13;2.30;;;;;;;17.75;71.73;94529.41;4997376;28;20236;-65
2021/05/11 12:03:42;;;;;;;5.23;2.10;;;;;;;17.91;73.35;94534.56;4992178;28;20224;-65
2021/05/11 12:06:16;;;;;;;2.83;2.73;;;;;;;17.93;71.54;94541.53;4997155;28;20254;-64
2021/05/11 12:08:43;;;;;;;3.10;2.83;;;;;;;18.05;71.53;94524.25;4997880;28;20415;-65
2021/05/11 12:11:11;;;;;;;2.37;2.20;;;;;;;17.95;71.25;94520.72;4994158;28;20220;-65
2021/05/11 12:13:40;;;;;;;2.37;2.27;;;;;;;18.02;72.15;94532.78;5001428;28;20710;-65
2021/05/11 12:16:15;;;;;;;2.73;2.63;;;;;;;17.57;70.10;94525.25;4991200;28;20231;-64
2021/05/11 12:19:01;;;;;;;3.00;2.70;;;;;;;17.18;71.70;94530.75;4995655;28;20215;-64
2021/05/11 12:21:29;;;;;;;4.50;3.20;;;;;;;17.11;71.16;94538.16;4996774;28;20224;-65
2021/05/11 12:24:05;;;;;;;3.87;2.50;;;;;;;17.17;72.07;94534.47;5001703;28;20743;-64
2021/05/11 12:26:32;;;;;;;2.30;2.20;;;;;;;17.23;71.95;94538.00;4997617;28;20216;-66
2021/05/11 12:29:07;;;;;;;3.30;3.00;;;;;;;17.02;72.06;94526.34;5001719;28;20220;-65
2021/05/11 12:31:37;;;;;;;2.70;2.40;;;;;;;17.02;74.11;94537.00;4995708;28;20581;-64
2021/05/11 12:34:06;;;;;;;2.70;2.60;;;;;;;16.76;74.59;94522.59;4994158;28;20688;-64
2021/05/11 12:36:44;;;;;;;2.33;2.23;;;;;;;16.58;75.63;94526.38;4994548;28;20224;-65
2021/05/11 12:39:40;;;;;;;3.37;3.17;;;;;;;16.42;74.33;94535.22;4996895;28;20259;-65
2021/05/11 12:42:18;;;;;;;3.20;2.53;;;;;;;16.53;75.41;94536.13;4996432;28;20224;-65
2021/05/11 12:44:47;;;;;;;2.73;2.53;;;;;;;16.56;76.57;94539.13;4995991;28;20224;-65
2021/05/11 12:47:15;;;;;;;2.77;2.57;;;;;;;16.53;76.88;94554.78;4997312;28;20298;-64
2021/05/11 12:49:43;;;;;;;2.93;2.73;;;;;;;16.38;76.90;94539.44;4994331;28;20220;-63
2021/05/11 12:52:12;;;;;;;3.00;2.90;;;;;;;16.37;76.59;94548.47;4984345;28;20278;-64
2021/05/11 12:54:46;;;;;;;4.67;4.37;;;;;;;16.21;78.12;94553.59;4987019;28;20249;-64
2021/05/11 12:57:30;;;;;;;4.13;3.70;;;;;;;16.00;77.64;94551.72;4990212;28;20228;-65
2021/05/11 13:00:00;;;;;;;5.00;3.57;;;;;;;16.00;78.44;94562.34;4995928;28;20313;-65
2021/05/11 13:17:03;;;;;;;5.20;4.90;;;;;;;15.78;79.91;94570.25;5000236;28;20224;-64
2021/05/11 13:20:00;;;;;;;5.53;5.13;;;;;;;15.81;80.57;94580.41;4997355;28;20227;-65
2021/05/11 13:22:39;;;;;;;5.63;5.33;;;;;;;15.76;79.45;94583.00;5003103;28;20541;-65
2021/05/11 13:25:17;;;;;;;3.70;3.57;;;;;;;15.85;80.19;94594.03;4995363;28;20692;-65
2021/05/11 13:27:51;;;;;;;4.73;4.43;;;;;;;15.77;79.94;94594.44;5001478;28;20254;-66
2021/05/11 13:30:33;;;;;;;3.50;3.30;;;;;;;15.68;80.23;94596.69;5001628;28;20231;-64
2021/05/11 13:33:12;;;;;;;5.07;4.77;;;;;;;15.85;80.46;94588.72;5020448;28;20252;-64
2021/05/11 13:35:40;;;;;;;4.93;4.63;;;;;;;15.94;81.72;94589.94;5021482;28;20223;-65
2021/05/11 13:38:07;;;;;;;5.33;4.93;;;;;;;15.88;80.85;94585.56;5022068;28;20223;-65
2021/05/11 13:40:36;;;;;;;8.00;7.37;;;;;;;15.85;80.20;94580.75;5017674;28;20239;-64
2021/05/11 13:43:03;;;;;;;5.63;5.23;;;;;;;15.83;80.28;94599.59;5020398;28;20428;-65
2021/05/11 13:45:31;;;;;;;5.57;4.83;;;;;;;15.89;80.35;94603.94;5022238;28;20227;-65
2021/05/11 13:48:01;;;;;;;6.70;6.20;;;;;;;15.87;80.09;94607.91;5015857;28;20215;-65
2021/05/11 13:53:25;;;;;;;5.90;5.50;;;;;;;15.90;80.65;94621.50;4998189;28;20256;-62
2021/05/11 13:56:08;;;;;;;6.00;5.60;;;;;;;15.73;81.23;94622.59;5020833;28;20285;-63
2021/05/11 14:01:38;;;;;;;5.50;5.20;;;;;;;15.66;81.22;94620.06;5019330;28;20273;-64
2021/05/11 14:04:07;;;;;;;6.80;6.30;;;;;;;15.68;80.92;94619.81;5021402;28;20238;-65
2021/05/11 14:06:34;;;;;;;5.70;5.30;;;;;;;15.89;81.75;94619.09;5019427;28;20453;-63
2021/05/11 14:09:02;;;;;;;6.30;5.87;;;;;;;15.77;81.40;94626.38;5021533;28;20452;-64
2021/05/11 14:11:32;;;;;;;6.57;6.03;;;;;;;15.77;82.23;94626.38;5021831;28;20266;-64
2021/05/11 14:14:02;;;;;;;6.03;5.63;;;;;;;15.74;81.81;94625.00;5020695;28;20219;-63
2021/05/11 14:16:30;;;;;;;6.43;5.93;;;;;;;15.64;82.31;94630.97;5020610;28;20251;-63
2021/05/11 14:18:58;;;;;;;5.43;5.07;;;;;;;15.49;82.48;94633.31;5021595;28;20603;-64
2021/05/11 14:21:26;;;;;;;5.63;5.23;;;;;;;15.37;83.01;94621.94;5017685;28;20235;-64
2021/05/11 14:23:56;;;;;;;7.73;7.00;;;;;;;15.46;84.31;94615.19;5016630;28;20286;-64
2021/05/11 14:26:24;;;;;;;8.83;8.00;;;;;;;15.30;84.14;94621.28;5018874;28;20728;-65
2021/05/11 14:28:52;;;;;;;7.50;7.03;;;;;;;15.11;84.36;94618.00;5022606;28;20816;-64
2021/05/11 14:31:20;;;;;;;8.50;7.90;;;;;;;15.20;85.55;94621.09;5021846;28;20220;-64
2021/05/11 14:33:47;;;;;;;9.90;9.10;;;;;;;15.26;83.63;94630.75;5020852;28;20580;-65
2021/05/11 14:36:15;;;;;;;8.67;7.97;;;;;;;15.15;84.41;94624.44;5012589;28;20232;-65
2021/05/11 14:38:43;;;;;;;8.50;7.80;;;;;;;15.10;83.72;94615.59;5009775;28;20273;-64
2021/05/11 14:41:11;;;;;;;7.23;6.60;;;;;;;15.05;83.50;94627.72;5015609;28;20251;-65
2021/05/11 14:43:40;;;;;;;7.07;6.50;;;;;;;15.14;83.66;94632.66;5019870;28;20247;-62